KHOT

Memorial Field Airport

Hot Springs, Arkansas, USA
METAR KHOT 201853Z AUTO 02005KT 10SM CLR 21/08 A3020 RMK AO2 SLP223 T02110078
Observed Flight Rules
Oct-20 @ 18:53 UTC (27 minutes ago) Visual Flight Rules
Wind Visibility Clouds
20° at 5 knots 10 miles
  • Clear skies
Temperatures Readings
Current 21°C / 70°F
Dewpoint 8°C / 46°F
Humidity 43%
Altimeter 30.2" Hg
Pressure 1022.3 hPa
Elevation 162
METAR KHOT 201853Z AUTO 02005KT 10SM CLR 21/08 A3020 RMK AO2 SLP223 T02110078
Observed Flight Rules
Oct-20 @ 18:53 UTC
(27 minutes ago)
VFR
Wind Visibility
20° at 5 knots 10 miles
Clouds
  • Clear skies
Temperature Dewpoint
21°C / 70°F 8°C / 46°F
Humidity Altimeter Pressure
43% 30.2" Hg 1022.3 hPa